TimeEST,TemperatureF,Dew PointF,Humidity,Sea Level PressureIn,VisibilityMPH,Wind Direction,Wind SpeedMPH,Gust SpeedMPH,PrecipitationIn,Events,Conditions,WindDirDegrees,DateUTC
12:00 AM,14.0,12.2,93,30.26,25.0,Calm,Calm,-,N/A,,Clear,0,2012-11-27 05:00:00
1:00 AM,12.2,8.6,85,30.26,25.0,ENE,3.5,-,N/A,,Clear,60,2012-11-27 06:00:00
2:00 AM,12.2,8.6,85,30.28,25.0,NE,3.5,-,N/A,,Partly Cloudy,40,2012-11-27 07:00:00
3:00 AM,14.0,10.4,86,30.27,25.0,NNE,2.3,-,N/A,,Mostly Cloudy,30,2012-11-27 08:00:00
4:00 AM,15.8,10.4,79,30.27,25.0,NE,4.6,-,N/A,,Mostly Cloudy,40,2012-11-27 09:00:00
5:00 AM,15.8,12.2,86,30.28,25.0,NNE,4.6,-,N/A,,Overcast,30,2012-11-27 10:00:00
6:00 AM,15.8,12.2,86,30.27,25.0,NNE,3.5,-,N/A,,Overcast,30,2012-11-27 11:00:00
7:00 AM,17.6,12.2,79,30.30,45.0,NNE,3.5,-,N/A,,Overcast,30,2012-11-27 12:00:00
7:35 AM,17.6,14.0,86,30.31,20.0,ENE,3.5,-,N/A,Snow,Light Snow Showers,60,2012-11-27 12:35:00
8:00 AM,17.6,12.2,79,30.30,20.0,ENE,4.6,-,N/A,,Scattered Clouds,60,2012-11-27 13:00:00
9:00 AM,21.2,14.0,74,30.32,20.0,NE,4.6,-,N/A,,Partly Cloudy,50,2012-11-27 14:00:00
10:00 AM,23.0,15.8,74,30.33,25.0,NE,4.6,-,N/A,,Mostly Cloudy,50,2012-11-27 15:00:00
11:00 AM,24.8,15.8,69,30.33,20.0,ENE,2.3,-,N/A,,Mostly Cloudy,70,2012-11-27 16:00:00
12:00 PM,26.6,15.8,64,30.32,25.0,NNW,2.3,-,N/A,,Mostly Cloudy,330,2012-11-27 17:00:00
1:00 PM,28.4,17.6,64,30.30,25.0,South,6.9,-,N/A,,Partly Cloudy,190,2012-11-27 18:00:00
2:00 PM,30.2,19.4,64,30.30,25.0,SW,4.6,-,N/A,,Partly Cloudy,230,2012-11-27 19:00:00
3:00 PM,30.2,17.6,60,30.29,25.0,SW,4.6,-,N/A,,Partly Cloudy,220,2012-11-27 20:00:00
4:00 PM,28.4,17.6,64,30.30,25.0,Calm,Calm,-,N/A,,Partly Cloudy,0,2012-11-27 21:00:00
5:00 PM,24.8,17.6,74,30.30,25.0,SW,3.5,-,N/A,,Partly Cloudy,220,2012-11-27 22:00:00
6:00 PM,23.0,17.6,80,30.32,25.0,SSW,3.5,-,N/A,,Partly Cloudy,200,2012-11-27 23:00:00
7:00 PM,23.0,17.6,80,30.31,25.0,Calm,Calm,-,N/A,,Partly Cloudy,0,2012-11-28 00:00:00
8:00 PM,21.2,17.6,86,30.31,25.0,Calm,Calm,-,N/A,,Partly Cloudy,0,2012-11-28 01:00:00
9:00 PM,19.4,15.8,86,30.31,25.0,North,2.3,-,N/A,,Partly Cloudy,350,2012-11-28 02:00:00
10:00 PM,19.4,17.6,93,30.30,25.0,Calm,Calm,-,N/A,,Scattered Clouds,0,2012-11-28 03:00:00
11:00 PM,19.4,15.8,86,30.29,20.0,ENE,3.5,-,N/A,,Mostly Cloudy,60,2012-11-28 04:00:00